createdAt,value
2022-11-28T15:29:21.104Z,3.81
2022-11-28T15:32:32.859Z,3.72
2022-11-28T15:35:41.267Z,3.59
2022-11-28T15:38:48.596Z,3.47
2022-11-28T15:41:55.691Z,3.43
2022-11-28T15:45:18.472Z,3.24
2022-11-28T15:48:39.787Z,3.16
2022-11-28T15:51:57.034Z,3.00
2022-11-28T15:55:03.214Z,2.93
2022-11-28T15:58:15.266Z,2.77
2022-11-28T16:01:26.901Z,2.69
2022-11-28T16:04:34.978Z,2.59
2022-11-28T16:15:29.819Z,2.32
2022-11-28T16:18:38.715Z,2.30
2022-11-28T16:21:55.647Z,2.22
2022-11-28T16:25:17.765Z,2.19
2022-11-28T16:28:35.722Z,2.12
2022-11-28T16:31:43.178Z,2.04
2022-11-28T16:35:00.455Z,2.07
2022-11-28T16:38:19.403Z,1.99
2022-11-28T16:41:30.826Z,1.84
2022-11-28T16:44:37.631Z,1.90
2022-11-28T16:47:44.772Z,1.89
2022-11-28T16:51:36.575Z,1.80
2022-11-28T16:54:43.986Z,1.82
2022-11-28T16:57:50.629Z,1.81
2022-11-28T17:01:05.325Z,1.77
2022-11-28T17:04:24.399Z,1.73
2022-11-28T17:07:34.171Z,1.68
2022-11-28T17:10:40.521Z,1.73
2022-11-28T17:13:47.585Z,1.68
2022-11-28T17:16:53.625Z,1.63
2022-11-28T17:20:00.485Z,1.63
2022-11-28T17:23:09.129Z,1.55
2022-11-28T17:26:15.831Z,1.48
2022-11-28T17:29:22.677Z,1.29
2022-11-28T17:32:29.436Z,1.35
2022-11-28T17:35:45.811Z,1.45
2022-11-28T17:38:55.125Z,1.31
2022-11-28T17:42:02.034Z,1.36
2022-11-28T17:45:18.300Z,1.47
2022-11-28T17:48:24.374Z,1.36
2022-11-28T17:51:31.175Z,1.30
2022-11-28T17:54:39.931Z,1.17
2022-11-28T17:57:48.532Z,1.12
2022-11-28T18:01:00.164Z,1.19
2022-11-28T18:04:08.585Z,1.07
2022-11-28T18:07:21.752Z,1.02
2022-11-28T18:10:32.717Z,0.98
2022-11-28T18:13:39.606Z,0.90
2022-11-28T18:16:46.660Z,0.84
2022-11-28T18:19:57.300Z,0.87
2022-11-28T18:23:04.730Z,0.84
2022-11-28T18:26:17.298Z,0.85
2022-11-28T18:29:24.150Z,0.84
2022-11-28T18:32:32.301Z,0.77
2022-11-28T18:35:39.827Z,0.75
2022-11-28T18:38:46.719Z,0.70
2022-11-28T18:41:56.652Z,0.68
2022-11-28T18:45:02.898Z,0.56
2022-11-28T18:48:10.079Z,0.44
2022-11-28T18:51:18.450Z,0.58
2022-11-28T18:54:25.966Z,0.59
2022-11-28T18:57:35.260Z,0.55
2022-11-28T19:00:42.385Z,0.47
2022-11-28T19:03:54.053Z,0.36
2022-11-28T19:07:01.830Z,0.38
2022-11-28T19:10:12.972Z,0.20
2022-11-28T19:13:23.103Z,0.17
2022-11-28T19:16:33.894Z,0.16
2022-11-28T19:19:41.637Z,0.11
2022-11-28T19:22:48.218Z,0.17
2022-11-28T19:25:55.112Z,0.23
2022-11-28T19:29:05.228Z,0.18
2022-11-28T19:32:12.867Z,0.19
2022-11-28T19:35:19.384Z,0.13
2022-11-28T19:38:26.224Z,0.05
2022-11-28T19:41:33.327Z,-0.10
2022-11-28T19:44:43.669Z,-0.06
2022-11-28T19:47:49.693Z,-0.13
2022-11-28T19:50:57.890Z,-0.14
2022-11-28T19:54:04.474Z,-0.20
2022-11-28T19:57:13.294Z,-0.09
2022-11-28T20:00:24.328Z,-0.06
2022-11-28T20:03:31.568Z,-0.13
2022-11-28T20:06:38.409Z,-0.15
2022-11-28T20:09:45.353Z,-0.24
2022-11-28T20:12:54.318Z,-0.10
2022-11-28T20:16:09.075Z,-0.06
2022-11-28T20:19:16.034Z,-0.16
2022-11-28T20:22:25.059Z,-0.26
2022-11-28T20:25:33.414Z,-0.29
2022-11-28T20:28:44.182Z,-0.23
2022-11-28T20:31:54.481Z,-0.20
2022-11-28T20:35:02.372Z,-0.28
2022-11-28T20:38:08.412Z,-0.20
2022-11-28T20:41:18.565Z,-0.31
2022-11-28T20:44:26.645Z,-0.25
2022-11-28T20:47:37.416Z,-0.53
2022-11-28T20:50:46.445Z,-0.50
2022-11-28T20:53:53.238Z,-0.62
2022-11-28T20:57:20.332Z,-0.49
2022-11-28T21:00:26.891Z,-0.55
2022-11-28T21:03:37.243Z,-0.52
2022-11-28T21:06:44.914Z,-0.53
2022-11-28T21:09:50.918Z,-0.64
2022-11-28T21:12:57.672Z,-0.51
2022-11-28T21:16:10.104Z,-0.54
2022-11-28T21:19:19.742Z,-0.54
2022-11-28T21:22:25.837Z,-0.58
2022-11-28T21:25:32.849Z,-0.68
2022-11-28T21:28:42.083Z,-0.83
2022-11-28T21:31:50.255Z,-0.91
2022-11-28T21:35:04.106Z,-0.96
2022-11-28T21:38:12.102Z,-1.03
2022-11-28T21:41:18.505Z,-1.09
2022-11-28T21:44:25.311Z,-1.11
2022-11-28T21:47:31.363Z,-1.12
2022-11-28T21:50:47.659Z,-1.04
2022-11-28T21:54:59.752Z,-0.95
2022-11-28T21:58:07.199Z,-1.14
2022-11-28T22:01:16.810Z,-1.25
2022-11-28T22:04:23.596Z,-1.35
2022-11-28T22:07:29.678Z,-1.16
2022-11-28T22:10:40.681Z,-1.23
2022-11-28T22:13:49.286Z,-1.29
2022-11-28T22:16:56.485Z,-1.36
2022-11-28T22:20:03.104Z,-1.37
2022-11-28T22:23:10.075Z,-1.40
2022-11-28T22:26:18.886Z,-1.51
2022-11-28T22:29:26.208Z,-1.53
2022-11-28T22:32:32.896Z,-1.64
2022-11-28T22:35:39.983Z,-1.60
2022-11-28T22:38:49.121Z,-1.67
2022-11-28T22:41:59.190Z,-1.70
2022-11-28T22:45:05.802Z,-1.49
2022-11-28T22:48:12.938Z,-1.56
2022-11-28T22:51:22.824Z,-1.73
2022-11-28T22:54:29.869Z,-1.74
2022-11-28T22:57:39.574Z,-1.67
2022-11-28T23:00:46.756Z,-1.81
2022-11-28T23:03:54.617Z,-1.86
2022-11-28T23:07:02.808Z,-1.90
2022-11-28T23:10:11.789Z,-1.92
2022-11-28T23:13:21.294Z,-2.08
2022-11-28T23:16:30.592Z,-2.10
2022-11-28T23:19:37.687Z,-2.10
2022-11-28T23:22:44.382Z,-2.14
2022-11-28T23:25:51.534Z,-2.06
2022-11-28T23:29:03.612Z,-2.12
2022-11-28T23:32:10.606Z,-2.02
2022-11-28T23:35:17.990Z,-1.97
2022-11-28T23:38:26.518Z,-2.11
2022-11-28T23:41:34.757Z,-2.06
2022-11-28T23:44:44.568Z,-2.16
2022-11-28T23:47:50.991Z,-2.30
2022-11-28T23:50:58.135Z,-2.19
2022-11-28T23:54:04.637Z,-2.31
2022-11-28T23:57:11.598Z,-2.32
